Airfield :
LOGIN :

Register | Disclaimer

   EN    FR    IT 

 










Legend :    VFR   Marginal VFR   IFR   Intensive IFR   Very Intensive IFR
Visi :
Ceiling :
>= 8 km
>= 3000ft
5 to 8 km
1000 to 3000 ft
1500m to 5 km
500 to 1000 ft
800 to 1500m
200 to 500 ft
< 800m
< 200 ft
Symbols :   Thunderstorms  Fog  Heavy snow  Heavy precipitations  Wind > 20 kt
SIGMETs :     Misc.  Thunderstorms  Icing  Turbulence  Mountain Waves  Volcanic Ashes







- Airport Elevation : 358 ft
- Download approach charts


EGTC - Cranfield

CURRENT METAR :
  • 211450Z 12010KT CAVOK 24/08 Q1009

EXPIRED METARs :
  • 211420Z 11013KT CAVOK 25/08 Q1010
  • 211350Z 11010KT CAVOK 24/07 Q1010
  • 211320Z 12013KT CAVOK 24/07 Q1010
  • 211250Z 11013KT CAVOK 24/07 Q1011
  • 211220Z 11013KT 080V150 CAVOK 24/06 Q1011
  • 211150Z 13011KT CAVOK 23/06 Q1012

TAF TAF EGTC
Valid from the 21 at 15:00 until the 21 at 17:00 UTC


211404Z 2115/2117 12010KT CAVOK
No reported NOTAMs for that airfield.



MET'MAP, your aeronautical weather chart ! - Copyright ORBIFLY December 2007 - Disclaimer

ORBIFLY MET'MAP TEAM :

Programming & Development : Alexandra Zaïnal
Concept & Development : Baudouin d'Aumeries
Co-Development & Prog : Marc-Olivier Méhu
Technical & hardware support : Manuel Goepfert

Contact : metmap@orbifly.com




SOURCES & CREDITS :

   NOAA